Time;durP1;ratioP1;P1;durP2;ratioP2;P2;SDS_P1;SDS_P2;PMS_P1;PMS_P2;Temp;Humidity;BMP_temperature;BMP_pressure;BME280_temperature;BME280_humidity;BME280_pressure;Samples;Min_cycle;Max_cycle;Signal;HPM_P1;HPM_P2
2023/05/02 00:01:54;;;;;;;7.38;3.15;;;;;;;11.70;100.00;100870.41;5072585;28;20059;-73
2023/05/02 00:04:20;;;;;;;6.35;3.35;;;;;;;11.35;100.00;100804.78;5072418;28;20036;-73
2023/05/02 00:06:46;;;;;;;4.55;3.25;;;;;;;11.68;100.00;100849.22;5072804;28;20036;-74
2023/05/02 00:09:12;;;;;;;5.90;3.33;;;;;;;11.52;100.00;100811.28;5071428;28;20229;-74
2023/05/02 00:11:38;;;;;;;8.77;3.40;;;;;;;11.31;100.00;100696.25;5071350;28;20033;-74
2023/05/02 00:14:04;;;;;;;5.13;3.22;;;;;;;10.97;100.00;100694.38;5071485;28;20032;-74
2023/05/02 00:16:29;;;;;;;4.47;3.22;;;;;;;11.59;100.00;100802.69;5073205;28;20049;-73
2023/05/02 00:18:55;;;;;;;5.82;3.28;;;;;;;11.33;100.00;100801.44;5071130;28;20062;-74
2023/05/02 00:21:30;;;;;;;6.95;3.20;;;;;;;11.63;100.00;100820.41;5071145;28;20029;-73
2023/05/02 00:23:58;;;;;;;5.15;3.22;;;;;;;11.56;100.00;100826.50;5071117;28;20032;-74
2023/05/02 00:26:25;;;;;;;5.88;3.38;;;;;;;10.98;100.00;100769.81;5071494;28;20512;-74
2023/05/02 00:28:51;;;;;;;7.18;3.20;;;;;;;11.86;100.00;100841.25;5072961;28;20043;-73
2023/05/02 00:31:16;;;;;;;6.47;2.92;;;;;;;11.35;100.00;100783.59;5070756;28;20024;-74
2023/05/02 00:33:42;;;;;;;7.95;3.08;;;;;;;11.52;100.00;100836.75;5072462;28;20024;-74
2023/05/02 00:36:18;;;;;;;7.03;3.25;;;;;;;11.31;100.00;100804.88;5070888;28;20086;-74
2023/05/02 00:38:43;;;;;;;6.63;3.03;;;;;;;11.63;100.00;100835.69;5071826;28;20028;-74
2023/05/02 00:41:09;;;;;;;5.28;3.30;;;;;;;11.47;100.00;100792.72;5071003;28;20489;-75
2023/05/02 00:43:35;;;;;;;3.63;2.70;;;;;;;11.51;100.00;100794.34;5071248;28;20028;-73
2023/05/02 00:46:01;;;;;;;4.43;3.20;;;;;;;11.37;100.00;100793.75;5071046;28;20028;-74
2023/05/02 00:48:27;;;;;;;4.05;2.83;;;;;;;11.27;100.00;100785.44;5070879;28;20046;-73
2023/05/02 00:50:52;;;;;;;6.03;3.38;;;;;;;11.67;100.00;100837.34;5070836;28;20052;-74
2023/05/02 00:53:18;;;;;;;4.15;2.90;;;;;;;11.44;100.00;100842.00;5072374;28;20541;-73
2023/05/02 00:55:43;;;;;;;7.43;3.10;;;;;;;11.29;100.00;100826.97;5072008;28;20032;-73
2023/05/02 00:58:13;;;;;;;7.55;3.70;;;;;;;11.27;100.00;100843.97;5071426;28;20115;-74
2023/05/02 01:00:56;;;;;;;7.93;3.25;;;;;;;11.43;100.00;100852.22;5070778;28;20498;-75
2023/05/02 01:03:40;;;;;;;5.95;3.15;;;;;;;11.09;100.00;100846.84;5051062;28;20036;-75
2023/05/02 01:06:18;;;;;;;4.22;3.10;;;;;;;10.92;100.00;100797.91;5051306;28;20036;-76
2023/05/02 01:09:16;;;;;;;7.65;3.00;;;;;;;11.48;100.00;100856.34;5050974;28;20125;-75
2023/05/02 01:11:50;;;;;;;4.85;3.40;;;;;;;11.52;100.00;100865.63;5043057;28;20045;-75
2023/05/02 01:14:17;;;;;;;5.25;3.45;;;;;;;11.14;100.00;100866.25;5049837;28;20092;-74
2023/05/02 01:16:45;;;;;;;6.90;3.63;;;;;;;10.50;100.00;100783.34;5052040;28;20135;-74
2023/05/02 01:19:33;;;;;;;4.88;3.53;;;;;;;10.71;100.00;100854.22;5051777;28;20112;-74
2023/05/02 01:22:02;;;;;;;5.32;3.30;;;;;;;11.16;100.00;100906.94;5051041;28;20068;-75
2023/05/02 01:25:00;;;;;;;6.80;3.67;;;;;;;11.06;100.00;100928.31;5052227;28;20040;-78
2023/05/02 01:27:50;;;;;;;5.90;3.60;;;;;;;11.29;100.00;100946.59;5050762;28;20033;-74
2023/05/02 01:30:19;;;;;;;4.70;3.55;;;;;;;10.65;100.00;100892.44;5050569;28;20037;-74
2023/05/02 01:32:46;;;;;;;7.20;3.47;;;;;;;11.08;100.00;100957.97;5050267;28;20029;-74
2023/05/02 01:35:15;;;;;;;5.97;3.60;;;;;;;10.93;100.00;100970.91;5051410;28;20024;-74
2023/05/02 01:37:43;;;;;;;6.45;3.42;;;;;;;10.62;100.00;100931.44;5051320;28;20074;-73
2023/05/02 01:40:10;;;;;;;5.68;3.45;;;;;;;10.88;100.00;101007.41;5050445;28;20044;-74
2023/05/02 01:42:38;;;;;;;5.55;3.40;;;;;;;10.22;100.00;100917.56;5051195;28;20491;-74
2023/05/02 01:45:07;;;;;;;5.63;3.47;;;;;;;10.40;100.00;100960.53;5050179;28;20036;-75
2023/05/02 01:47:35;;;;;;;6.85;3.47;;;;;;;10.84;100.00;101029.53;5049699;28;20075;-73
2023/05/02 01:50:02;;;;;;;4.70;3.35;;;;;;;10.93;100.00;101049.78;5051448;28;20032;-74
2023/05/02 01:52:29;;;;;;;5.18;3.55;;;;;;;10.61;100.00;101038.28;5051291;28;20154;-73
2023/05/02 01:54:58;;;;;;;6.18;3.03;;;;;;;10.81;100.00;101056.69;5053384;28;20107;-72
2023/05/02 01:57:24;;;;;;;5.63;3.08;;;;;;;10.97;100.00;101033.59;5089974;28;20035;-73
2023/05/02 01:59:50;;;;;;;7.32;3.58;;;;;;;11.06;100.00;101038.56;5091266;28;20040;-73
2023/05/02 02:02:17;;;;;;;8.77;3.38;;;;;;;11.08;100.00;101039.41;5091613;28;20024;-74
2023/05/02 02:04:44;;;;;;;6.72;3.80;;;;;;;10.87;100.00;101042.22;5090294;28;20036;-73
2023/05/02 02:07:12;;;;;;;11.63;4.40;;;;;;;10.93;100.00;101054.03;5089964;28;20130;-74
2023/05/02 02:09:38;;;;;;;15.57;5.03;;;;;;;10.15;100.00;101005.72;5090430;28;20032;-73
2023/05/02 02:12:06;;;;;;;6.30;3.88;;;;;;;10.44;100.00;101094.38;5091587;28;20047;-74
2023/05/02 02:15:10;;;;;;;8.63;4.07;;;;;;;10.74;100.00;101169.53;5090205;28;20028;-75
2023/05/02 02:17:57;;;;;;;7.57;4.10;;;;;;;10.76;100.00;101218.69;5088604;28;20061;-74
2023/05/02 02:20:24;;;;;;;7.35;4.28;;;;;;;10.44;100.00;101179.13;5089547;28;20044;-74
2023/05/02 02:22:52;;;;;;;9.05;4.10;;;;;;;10.63;100.00;101220.50;5091202;28;20478;-75
2023/05/02 02:25:18;;;;;;;8.82;4.70;;;;;;;9.93;100.00;101198.94;5090584;28;20030;-75
2023/05/02 02:27:43;;;;;;;9.32;4.68;;;;;;;10.04;100.00;101238.66;5081506;28;20135;-74
2023/05/02 02:30:09;;;;;;;7.25;4.20;;;;;;;10.31;100.00;101281.75;5074992;28;20028;-75
2023/05/02 02:32:35;;;;;;;5.75;4.43;;;;;;;10.47;100.00;101363.84;5063042;28;20052;-75
2023/05/02 02:35:04;;;;;;;10.75;4.28;;;;;;;10.24;100.00;101346.16;5067387;28;20120;-75
2023/05/02 02:37:34;;;;;;;8.80;4.50;;;;;;;10.41;100.00;101425.75;5055044;28;20083;-75
2023/05/02 02:40:02;;;;;;;8.43;4.45;;;;;;;10.38;100.00;101506.25;5053629;28;20151;-75
2023/05/02 02:42:38;;;;;;;6.13;4.00;;;;;;;10.56;100.00;101525.72;5055182;28;20025;-74
2023/05/02 02:45:32;;;;;;;8.15;4.15;;;;;;;10.23;100.00;101517.31;5053774;28;20024;-74
2023/05/02 02:48:10;;;;;;;5.90;3.70;;;;;;;9.86;100.00;101491.91;5053993;28;20044;-75
2023/05/02 02:51:02;;;;;;;8.00;3.60;;;;;;;10.08;100.00;101535.06;5054506;28;20056;-74
2023/05/02 02:53:33;;;;;;;;;;;;;;;10.06;100.00;101548.66;5031029;28;20040;-74
2023/05/02 02:56:09;;;;;;;6.90;3.85;;;;;;;9.90;100.00;101563.06;5054814;28;20278;-74
2023/05/02 02:58:53;;;;;;;7.50;3.92;;;;;;;9.97;100.00;101576.56;5056224;28;20041;-76
2023/05/02 03:01:21;;;;;;;8.32;4.30;;;;;;;9.96;100.00;101598.63;5053024;28;20028;-75
2023/05/02 03:03:48;;;;;;;6.63;4.40;;;;;;;9.82;100.00;101589.28;5052720;28;20064;-73
2023/05/02 03:06:15;;;;;;;13.27;5.25;;;;;;;9.70;100.00;101627.34;5052687;28;20411;-76
2023/05/02 03:08:42;;;;;;;6.85;4.60;;;;;;;9.71;100.00;101656.97;5052971;28;20048;-75
2023/05/02 03:11:08;;;;;;;7.35;4.63;;;;;;;10.18;100.00;101658.78;5052969;28;20108;-75
2023/05/02 03:13:37;;;;;;;8.23;4.70;;;;;;;9.40;100.00;101612.88;5074659;28;20036;-74
2023/05/02 03:16:31;;;;;;;7.25;4.35;;;;;;;10.04;100.00;101695.16;5073028;28;20045;-75
2023/05/02 03:18:57;;;;;;;6.97;3.80;;;;;;;10.10;100.00;101711.28;5069887;28;20076;-75
2023/05/02 03:21:22;;;;;;;5.30;4.00;;;;;;;10.01;100.00;101713.78;5072800;28;20481;-74
2023/05/02 03:23:47;;;;;;;5.65;3.80;;;;;;;10.05;100.00;101719.72;5074276;28;20119;-76
2023/05/02 03:26:13;;;;;;;6.53;3.65;;;;;;;10.34;100.00;101744.38;5072952;28;20074;-75
2023/05/02 03:28:39;;;;;;;6.57;3.90;;;;;;;9.94;100.00;101694.31;5073870;28;22246;-75
2023/05/02 03:31:04;;;;;;;7.30;3.88;;;;;;;9.77;100.00;101708.63;5083097;28;20472;-76
2023/05/02 03:33:29;;;;;;;8.68;4.30;;;;;;;9.90;100.00;101729.84;5072602;28;20058;-75
2023/05/02 03:35:55;;;;;;;4.75;3.58;;;;;;;9.95;100.00;101685.81;5073314;28;20032;-75
2023/05/02 03:38:21;;;;;;;9.40;4.25;;;;;;;11.70;100.00;101784.16;5084690;28;20035;-72
2023/05/02 03:40:47;;;;;;;5.13;3.53;;;;;;;10.03;100.00;101701.94;5092785;28;20047;-74
2023/05/02 03:43:12;;;;;;;7.07;3.67;;;;;;;10.06;100.00;101734.97;5092325;28;20414;-76
2023/05/02 03:45:37;;;;;;;10.45;4.22;;;;;;;10.13;100.00;101739.25;5079573;28;20246;-77
2023/05/02 03:48:03;;;;;;;6.55;3.78;;;;;;;10.36;100.00;101736.75;5072018;28;20036;-75
2023/05/02 03:50:28;;;;;;;7.65;3.80;;;;;;;10.13;100.00;101674.88;5072743;28;20431;-73
2023/05/02 03:52:54;;;;;;;7.28;4.07;;;;;;;10.21;100.00;101712.16;5072003;28;20039;-73
2023/05/02 03:55:20;;;;;;;7.55;3.92;;;;;;;10.07;100.00;101662.97;5072540;28;20038;-75
2023/05/02 03:57:46;;;;;;;7.15;4.18;;;;;;;10.23;100.00;101636.78;5072285;28;20032;-73
2023/05/02 04:00:11;;;;;;;6.82;4.25;;;;;;;10.61;100.00;101679.13;5072245;28;20024;-75
2023/05/02 04:02:37;;;;;;;7.28;4.60;;;;;;;10.72;100.00;101670.63;5073604;28;20131;-75
2023/05/02 04:05:03;;;;;;;11.18;4.78;;;;;;;9.79;100.00;101544.41;5072876;28;20041;-75
2023/05/02 04:07:28;;;;;;;10.80;4.78;;;;;;;10.30;100.00;101653.69;5072861;28;20040;-76
2023/05/02 04:09:54;;;;;;;7.90;4.72;;;;;;;10.47;100.00;101633.38;5073298;28;20489;-75
2023/05/02 04:12:19;;;;;;;8.15;4.90;;;;;;;11.00;100.00;101672.28;5073170;28;20120;-73
2023/05/02 04:14:45;;;;;;;10.38;5.38;;;;;;;10.18;100.00;101544.41;5072437;28;20457;-72
2023/05/02 04:17:10;;;;;;;10.75;5.40;;;;;;;10.50;100.00;101564.69;5072803;28;20058;-74
2023/05/02 04:19:36;;;;;;;7.80;4.43;;;;;;;10.65;100.00;101533.31;5071274;28;20033;-73
2023/05/02 04:22:02;;;;;;;9.02;4.65;;;;;;;11.12;100.00;101528.84;5071087;28;20039;-72
2023/05/02 04:24:28;;;;;;;9.00;4.70;;;;;;;10.80;100.00;101411.13;5072892;28;20036;-71
2023/05/02 04:26:54;;;;;;;7.57;4.38;;;;;;;10.93;100.00;101408.53;5071846;28;20751;-71
2023/05/02 04:29:19;;;;;;;10.98;5.00;;;;;;;10.52;100.00;101358.75;5070694;28;20024;-72
2023/05/02 04:31:45;;;;;;;9.32;5.55;;;;;;;10.42;100.00;101279.97;5072234;28;20056;-73
2023/05/02 04:34:10;;;;;;;10.32;4.85;;;;;;;10.38;100.00;101335.91;5071037;28;20033;-72
2023/05/02 04:36:36;;;;;;;5.90;4.43;;;;;;;10.14;100.00;101296.22;5070680;28;20752;-71
2023/05/02 04:39:02;;;;;;;7.60;4.18;;;;;;;10.31;100.00;101321.56;5070468;28;20090;-74
2023/05/02 04:41:28;;;;;;;9.27;5.20;;;;;;;10.57;100.00;101339.22;5070981;28;20052;-71
2023/05/02 04:43:53;;;;;;;10.65;5.10;;;;;;;10.91;100.00;101338.13;5069711;28;20056;-74
2023/05/02 04:46:19;;;;;;;9.57;4.32;;;;;;;12.27;100.00;101377.56;5072059;28;20510;-71
2023/05/02 04:48:44;;;;;;;5.78;4.15;;;;;;;11.41;100.00;101384.38;5069369;28;20115;-73
2023/05/02 04:51:10;;;;;;;5.47;4.22;;;;;;;11.50;100.00;101389.41;5071471;28;20032;-73
2023/05/02 04:53:36;;;;;;;8.55;4.45;;;;;;;11.29;100.00;101293.69;5071938;28;20032;-73
2023/05/02 04:56:01;;;;;;;11.20;4.72;;;;;;;11.51;100.00;101352.88;5070568;28;20182;-73
2023/05/02 04:58:27;;;;;;;8.15;5.30;;;;;;;12.07;100.00;101335.31;5070713;28;20032;-73
2023/05/02 05:00:53;;;;;;;11.25;5.10;;;;;;;12.06;100.00;101285.19;5069470;28;20491;-72
2023/05/02 05:03:19;;;;;;;8.13;5.18;;;;;;;11.64;100.00;101173.59;5071476;28;20457;-72
2023/05/02 05:05:44;;;;;;;7.97;5.00;;;;;;;12.66;100.00;101199.25;5071396;28;20028;-72
2023/05/02 05:08:10;;;;;;;8.27;5.15;;;;;;;12.78;100.00;101093.59;5071723;28;20719;-72
2023/05/02 05:10:35;;;;;;;8.13;4.55;;;;;;;12.10;100.00;101001.31;5067981;28;20472;-72
2023/05/02 05:13:01;;;;;;;9.45;5.25;;;;;;;12.94;100.00;100993.72;5051602;28;20399;-73
2023/05/02 05:15:26;;;;;;;8.80;5.10;;;;;;;12.87;100.00;100953.06;5050494;28;20063;-74
2023/05/02 05:17:52;;;;;;;7.03;4.50;;;;;;;13.17;100.00;101046.03;5052198;28;20063;-74
2023/05/02 05:20:18;;;;;;;7.78;4.47;;;;;;;13.51;100.00;101034.22;5050409;28;20033;-74
2023/05/02 05:22:44;;;;;;;9.00;4.82;;;;;;;13.69;100.00;100970.72;5052322;28;20119;-74
2023/05/02 05:25:10;;;;;;;7.43;4.65;;;;;;;13.76;100.00;100930.50;5051587;28;20033;-74
2023/05/02 05:27:36;;;;;;;6.43;4.53;;;;;;;13.79;100.00;100830.75;5051933;28;20124;-74
2023/05/02 05:30:07;;;;;;;8.15;4.82;;;;;;;14.65;100.00;100830.81;5051392;28;20036;-73
2023/05/02 05:32:33;;;;;;;9.32;4.43;;;;;;;14.23;100.00;100712.69;5050992;28;20029;-73
2023/05/02 05:34:58;;;;;;;10.45;4.65;;;;;;;14.23;100.00;100701.59;5051434;28;20106;-73
2023/05/02 05:37:23;;;;;;;6.88;4.53;;;;;;;14.88;100.00;100659.34;5066560;28;20515;-73
2023/05/02 05:39:49;;;;;;;8.63;4.45;;;;;;;15.13;100.00;100611.50;5050434;28;20123;-73
2023/05/02 05:42:15;;;;;;;7.35;4.28;;;;;;;15.61;100.00;100558.44;5051515;28;20040;-73
2023/05/02 05:44:41;;;;;;;6.85;3.75;;;;;;;15.67;100.00;100505.28;5050489;28;20033;-73
2023/05/02 05:47:06;;;;;;;4.97;3.40;;;;;;;15.67;100.00;100465.06;5051204;28;20049;-73
2023/05/02 05:49:31;;;;;;;7.72;3.80;;;;;;;15.30;100.00;100467.41;5050115;28;20463;-73
2023/05/02 05:51:57;;;;;;;8.15;3.80;;;;;;;16.24;100.00;100484.91;5066623;28;20103;-73
2023/05/02 05:54:23;;;;;;;5.97;3.78;;;;;;;15.86;100.00;100501.06;5051720;28;20036;-73
2023/05/02 05:56:48;;;;;;;8.30;3.35;;;;;;;15.90;100.00;100528.25;5069791;28;20052;-73
2023/05/02 05:59:14;;;;;;;7.47;3.83;;;;;;;16.19;100.00;100515.03;5070143;28;20494;-73
2023/05/02 06:01:39;;;;;;;7.38;3.33;;;;;;;16.30;100.00;100489.78;5069640;28;20024;-73
2023/05/02 06:04:06;;;;;;;4.72;3.13;;;;;;;15.70;100.00;100464.97;5069502;28;20032;-73
2023/05/02 06:06:32;;;;;;;5.97;3.00;;;;;;;16.11;100.00;100524.78;5071454;28;20050;-73
2023/05/02 06:08:57;;;;;;;4.22;2.55;;;;;;;16.04;100.00;100531.91;5057812;28;20128;-71
2023/05/02 06:11:23;;;;;;;4.68;2.30;;;;;;;16.12;100.00;100554.69;5051190;28;20025;-72
2023/05/02 06:13:50;;;;;;;6.13;2.75;;;;;;;16.35;100.00;100537.44;5051470;28;20055;-73
2023/05/02 06:16:16;;;;;;;5.22;2.53;;;;;;;16.44;100.00;100595.22;5050877;28;20538;-73
2023/05/02 06:18:45;;;;;;;5.03;2.10;;;;;;;16.10;100.00;100569.31;5066043;28;20037;-73
2023/05/02 06:21:10;;;;;;;4.97;2.40;;;;;;;17.11;100.00;100640.25;5051244;28;20077;-73
2023/05/02 06:23:36;;;;;;;6.00;2.38;;;;;;;17.06;100.00;100662.75;5049486;28;20119;-73
2023/05/02 06:26:03;;;;;;;6.40;2.45;;;;;;;17.13;100.00;100712.16;5066756;28;20477;-73
2023/05/02 06:28:30;;;;;;;5.75;2.33;;;;;;;16.51;100.00;100701.94;5050932;28;20025;-73
2023/05/02 06:31:04;;;;;;;6.05;1.98;;;;;;;16.88;100.00;100701.22;5066305;28;20124;-73
2023/05/02 06:33:31;;;;;;;3.70;1.95;;;;;;;17.25;100.00;100789.53;5049723;28;20700;-73
2023/05/02 06:35:57;;;;;;;4.40;2.08;;;;;;;17.49;100.00;100807.44;5050841;28;20056;-72
2023/05/02 06:38:23;;;;;;;5.35;1.90;;;;;;;18.03;100.00;100800.69;5050670;28;20171;-72
2023/05/02 06:40:49;;;;;;;9.65;2.17;;;;;;;17.80;100.00;100870.38;5066208;28;20116;-73
2023/05/02 06:43:15;;;;;;;6.05;2.13;;;;;;;17.88;100.00;100876.03;5051029;28;20114;-73
2023/05/02 06:45:40;;;;;;;4.07;2.20;;;;;;;17.88;100.00;100893.19;5050366;28;20562;-73
2023/05/02 06:48:07;;;;;;;5.22;1.80;;;;;;;17.92;100.00;100866.41;5049626;28;20108;-73
2023/05/02 06:50:32;;;;;;;5.30;2.08;;;;;;;17.74;100.00;100875.78;5049516;28;20067;-73
2023/05/02 06:52:58;;;;;;;2.88;1.83;;;;;;;18.14;100.00;100934.06;5050426;28;20068;-73
2023/05/02 06:55:23;;;;;;;3.80;2.10;;;;;;;18.45;100.00;100942.16;5049504;28;20041;-73
2023/05/02 06:57:49;;;;;;;5.60;2.08;;;;;;;19.15;100.00;100941.47;5050882;28;20033;-73
2023/05/02 07:00:16;;;;;;;4.88;1.90;;;;;;;19.46;100.00;100905.56;5049568;28;20040;-73
2023/05/02 07:02:44;;;;;;;4.97;2.28;;;;;;;19.78;100.00;100975.31;5066459;28;20037;-73
2023/05/02 07:05:10;;;;;;;4.60;2.22;;;;;;;19.05;100.00;100977.16;5050833;28;20116;-73
2023/05/02 07:07:35;;;;;;;5.00;1.70;;;;;;;18.73;100.00;100957.19;5050645;28;20147;-72
2023/05/02 07:10:01;;;;;;;4.53;2.05;;;;;;;18.95;100.00;100927.78;5049334;28;20101;-72
2023/05/02 07:12:27;;;;;;;4.05;1.88;;;;;;;19.84;100.00;100925.13;5051162;28;20033;-72
2023/05/02 07:14:53;;;;;;;3.08;1.60;;;;;;;19.51;100.00;100952.63;5052498;28;20033;-71
2023/05/02 07:17:18;;;;;;;3.22;1.80;;;;;;;19.33;100.00;100968.97;5052926;28;20041;-72
2023/05/02 07:19:43;;;;;;;4.45;1.70;;;;;;;20.19;100.00;100954.31;5053996;28;20040;-72
2023/05/02 07:22:09;;;;;;;4.00;1.92;;;;;;;19.25;100.00;100934.97;5068795;28;20029;-71
2023/05/02 07:24:35;;;;;;;3.30;1.95;;;;;;;19.92;100.00;100953.13;5053296;28;20021;-73
2023/05/02 07:27:02;;;;;;;2.50;1.70;;;;;;;20.13;100.00;100965.78;5068945;28;20127;-73
2023/05/02 07:29:27;;;;;;;2.75;1.90;;;;;;;20.40;100.00;100960.97;5052684;28;20036;-73
2023/05/02 07:31:53;;;;;;;3.47;1.75;;;;;;;19.83;100.00;100903.63;5068769;28;20041;-73
2023/05/02 07:34:18;;;;;;;3.63;1.80;;;;;;;20.44;100.00;100947.78;5052049;28;20051;-73
2023/05/02 07:36:43;;;;;;;4.20;1.73;;;;;;;20.54;100.00;100893.88;5069044;28;20487;-73
2023/05/02 07:39:09;;;;;;;4.78;1.70;;;;;;;20.82;100.00;100885.44;5052357;28;20128;-73
2023/05/02 07:41:34;;;;;;;3.28;1.85;;;;;;;20.70;100.00;100887.78;5052846;28;20115;-73
2023/05/02 07:44:00;;;;;;;5.13;1.83;;;;;;;20.58;100.00;100932.38;5052115;28;20029;-73
2023/05/02 07:46:25;;;;;;;5.18;1.80;;;;;;;20.48;100.00;100887.28;5068509;28;20036;-73
2023/05/02 07:48:52;;;;;;;7.32;1.85;;;;;;;20.37;99.71;100884.44;5053276;28;20522;-73
2023/05/02 07:51:20;;;;;;;3.20;1.45;;;;;;;20.94;95.64;100915.75;5052237;28;20082;-73
2023/05/02 07:53:46;;;;;;;2.72;1.73;;;;;;;20.23;98.09;100923.09;5068968;28;20079;-73
2023/05/02 07:56:11;;;;;;;5.25;2.22;;;;;;;21.35;99.52;100871.13;5068646;28;20032;-73
2023/05/02 07:58:37;;;;;;;2.78;1.60;;;;;;;21.10;91.68;100867.47;5051295;28;20029;-72
2023/05/02 08:01:03;;;;;;;5.45;1.85;;;;;;;20.77;85.91;100884.84;5068845;28;20025;-73
2023/05/02 08:03:29;;;;;;;3.97;1.75;;;;;;;21.66;86.35;100872.78;5068137;28;20083;-72
2023/05/02 08:05:55;;;;;;;3.72;1.90;;;;;;;20.56;87.70;100877.34;5068534;28;20036;-72
2023/05/02 08:08:20;;;;;;;3.55;1.90;;;;;;;21.09;86.26;100918.38;5068201;28;20078;-73
2023/05/02 08:10:46;;;;;;;4.10;1.70;;;;;;;20.95;86.19;100920.03;5052640;28;20029;-73
2023/05/02 08:13:12;;;;;;;4.05;1.88;;;;;;;21.52;85.18;100906.41;5051962;28;20571;-73
2023/05/02 08:15:37;;;;;;;4.65;1.98;;;;;;;20.81;86.52;100870.84;5068241;28;20059;-73
2023/05/02 08:18:02;;;;;;;3.60;1.77;;;;;;;21.17;85.33;100887.75;5051155;28;20037;-73
2023/05/02 08:20:28;;;;;;;4.90;1.60;;;;;;;22.69;83.96;100859.50;5051585;28;20277;-74
2023/05/02 08:22:53;;;;;;;3.88;1.90;;;;;;;20.96;85.90;100914.75;5052194;28;20454;-73
2023/05/02 08:25:19;;;;;;;3.85;2.00;;;;;;;22.33;81.82;100872.97;5067669;28;20029;-73
2023/05/02 08:27:44;;;;;;;4.40;1.95;;;;;;;21.90;84.98;100910.19;5067977;28;20487;-73
2023/05/02 08:30:10;;;;;;;5.88;2.10;;;;;;;21.70;82.70;100899.31;5050988;28;20025;-73
2023/05/02 08:32:36;;;;;;;4.10;2.20;;;;;;;21.40;84.24;100845.00;5067323;28;20507;-73
2023/05/02 08:35:02;;;;;;;6.15;2.45;;;;;;;21.76;85.27;100854.94;5052565;28;20029;-73
2023/05/02 08:37:27;;;;;;;4.82;1.90;;;;;;;21.57;82.89;100894.84;5068226;28;20503;-73
2023/05/02 08:39:53;;;;;;;4.93;1.90;;;;;;;21.67;76.32;100897.72;5052352;28;20052;-73
2023/05/02 08:42:21;;;;;;;6.72;1.95;;;;;;;21.07;77.81;100873.66;5051596;28;20025;-73
2023/05/02 08:44:50;;;;;;;5.75;1.77;;;;;;;21.62;76.59;100899.78;5050930;28;20506;-73
2023/05/02 08:47:17;;;;;;;5.03;2.08;;;;;;;22.10;81.87;100886.53;5067629;28;20032;-73
2023/05/02 08:49:44;;;;;;;3.47;1.80;;;;;;;21.55;73.59;100891.53;5051377;28;20029;-73
2023/05/02 08:52:11;;;;;;;2.72;1.90;;;;;;;20.97;77.73;100863.88;5067455;28;20029;-73
2023/05/02 08:54:38;;;;;;;2.92;1.80;;;;;;;21.26;76.20;100894.13;5067640;28;20021;-73
2023/05/02 08:57:04;;;;;;;3.25;1.90;;;;;;;21.41;78.90;100896.66;5051207;28;20028;-72
2023/05/02 08:59:30;;;;;;;3.55;1.80;;;;;;;21.23;72.61;100863.28;5050903;28;20040;-73
2023/05/02 09:02:09;;;;;;;5.32;1.98;;;;;;;21.84;71.52;100887.25;5051897;28;20025;-73
2023/05/02 09:04:41;;;;;;;4.55;2.13;;;;;;;22.16;70.89;100803.25;5066851;28;20029;-73
2023/05/02 09:07:07;;;;;;;4.55;1.83;;;;;;;21.12;73.00;100850.94;5067180;28;20120;-72
2023/05/02 09:09:33;;;;;;;3.40;1.90;;;;;;;21.30;65.56;100899.03;5051358;28;20047;-73
2023/05/02 09:12:00;;;;;;;3.70;1.92;;;;;;;21.44;65.66;100901.69;5069289;28;20396;-73
2023/05/02 09:14:26;;;;;;;4.93;2.05;;;;;;;21.17;65.40;100850.69;5091858;28;20031;-72
2023/05/02 09:16:57;;;;;;;3.30;1.70;;;;;;;21.76;62.82;100901.53;4710802;28;9999680;-71
2023/05/02 09:19:27;;;;;;;5.85;1.80;;;;;;;20.97;63.25;100814.75;5046672;28;21189;-72
2023/05/02 09:22:00;;;;;;;4.50;1.98;;;;;;;22.28;62.49;100887.16;5048174;28;20120;-72
2023/05/02 09:24:25;;;;;;;3.55;1.85;;;;;;;21.44;66.51;100893.91;5048281;28;20060;-73
2023/05/02 09:26:59;;;;;;;4.53;1.90;;;;;;;21.90;62.87;100886.88;5047812;28;20060;-71
2023/05/02 09:29:27;;;;;;;5.22;1.65;;;;;;;21.59;64.95;100841.22;5050183;28;20089;-72
2023/05/02 09:31:52;;;;;;;3.80;1.95;;;;;;;21.06;66.02;100793.56;5082592;28;20039;-74
2023/05/02 09:34:18;;;;;;;2.30;1.60;;;;;;;22.18;59.59;100888.63;5088505;28;20544;-74
2023/05/02 09:36:52;;;;;;;3.22;1.65;;;;;;;22.17;57.34;100856.72;5084837;28;20064;-74
2023/05/02 09:39:27;;;;;;;4.90;1.52;;;;;;;21.99;59.99;100875.13;5063488;28;20035;-74
2023/05/02 09:41:53;;;;;;;5.13;2.00;;;;;;;22.68;59.21;100869.97;5071854;28;20033;-76
2023/05/02 09:44:23;;;;;;;2.30;1.50;;;;;;;22.32;61.80;100865.31;5067474;28;20035;-76
2023/05/02 09:46:54;;;;;;;2.45;1.80;;;;;;;22.26;61.63;100856.13;5065645;28;20044;-75
2023/05/02 09:49:38;;;;;;;4.18;1.77;;;;;;;22.25;62.72;100859.66;5056844;28;20036;-74
2023/05/02 09:52:17;;;;;;;2.95;1.60;;;;;;;21.65;57.94;100795.22;5051129;28;20033;-76
2023/05/02 09:54:45;;;;;;;2.85;1.55;;;;;;;23.06;59.85;100858.75;5051576;28;20112;-76
2023/05/02 09:57:10;;;;;;;4.10;1.70;;;;;;;22.17;60.42;100848.94;5050565;28;20090;-79
2023/05/02 09:59:37;;;;;;;4.07;2.00;;;;;;;21.74;62.02;100818.78;5049855;28;20029;-77
2023/05/02 10:02:04;;;;;;;2.97;1.60;;;;;;;22.20;62.76;100796.09;5050047;28;20033;-77
2023/05/02 10:04:31;;;;;;;4.72;1.58;;;;;;;22.40;61.91;100791.28;5051813;28;20037;-76
2023/05/02 10:06:58;;;;;;;4.95;1.70;;;;;;;22.08;62.22;100848.66;5051351;28;20403;-77
2023/05/02 10:09:25;;;;;;;2.83;1.60;;;;;;;21.24;62.14;100852.00;5051695;28;20029;-77
2023/05/02 10:11:53;;;;;;;1.50;1.23;;;;;;;22.51;58.38;100749.16;5050113;28;20480;-76
2023/05/02 10:14:21;;;;;;;2.03;1.50;;;;;;;21.96;56.95;100847.66;5050323;28;20167;-79
2023/05/02 10:17:01;;;;;;;2.65;1.50;;;;;;;22.70;55.20;100793.72;5051899;28;20053;-76
2023/05/02 10:19:32;;;;;;;2.38;1.65;;;;;;;23.37;53.96;100826.47;5050974;28;20130;-76
2023/05/02 10:21:58;;;;;;;3.67;1.50;;;;;;;22.80;54.54;100789.59;5049995;28;20048;-76
2023/05/02 10:24:25;;;;;;;4.53;1.30;;;;;;;22.79;56.34;100761.16;5050001;28;20037;-76
2023/05/02 10:26:51;;;;;;;3.85;1.40;;;;;;;22.93;52.65;100816.41;5049672;28;20028;-77
2023/05/02 10:29:17;;;;;;;3.83;1.65;;;;;;;23.20;54.71;100756.63;5050345;28;20029;-77
2023/05/02 10:31:44;;;;;;;3.92;1.40;;;;;;;22.24;57.01;100754.31;5049890;28;20047;-78
2023/05/02 10:34:11;;;;;;;4.50;1.35;;;;;;;22.02;57.54;100767.00;5050335;28;20033;-78
2023/05/02 10:36:36;;;;;;;4.30;1.63;;;;;;;23.15;53.73;100771.69;5051244;28;20036;-76
2023/05/02 10:39:02;;;;;;;5.20;1.90;;;;;;;23.68;55.58;100770.66;5049846;28;20033;-76
2023/05/02 10:41:32;;;;;;;4.32;1.85;;;;;;;24.26;52.69;100802.03;5050787;28;20135;-78
2023/05/02 10:43:59;;;;;;;5.22;2.40;;;;;;;23.11;54.11;100799.63;5049843;28;20404;-77
2023/05/02 10:46:36;;;;;;;3.60;1.45;;;;;;;23.31;54.09;100806.13;5050740;28;20087;-77
2023/05/02 10:49:05;;;;;;;5.93;1.60;;;;;;;21.95;54.64;100732.03;5055080;28;20414;-79
2023/05/02 10:51:32;;;;;;;2.47;1.13;;;;;;;22.43;53.41;100770.38;5054847;28;20029;-77
2023/05/02 10:54:19;;;;;;;4.70;2.10;;;;;;;23.10;53.93;100812.69;5053476;28;20457;-78
2023/05/02 10:57:02;;;;;;;3.65;1.40;;;;;;;23.31;54.33;100803.50;5055046;28;20032;-77
2023/05/02 10:59:32;;;;;;;3.30;1.30;;;;;;;23.47;50.42;100805.91;5070580;28;20037;-78
2023/05/02 11:01:58;;;;;;;2.53;1.35;;;;;;;22.60;52.67;100758.13;5055103;28;20033;-77
2023/05/02 11:04:24;;;;;;;3.08;1.33;;;;;;;23.67;50.76;100792.38;5054507;28;20033;-77
2023/05/02 11:07:12;;;;;;;1.58;1.10;;;;;;;24.07;51.88;100812.06;5054728;28;20064;-77
2023/05/02 11:09:38;;;;;;;3.00;1.25;;;;;;;23.02;52.61;100757.88;5049320;28;20504;-77
2023/05/02 11:12:04;;;;;;;3.90;1.40;;;;;;;22.53;54.21;100780.16;5052993;28;20036;-76
2023/05/02 11:14:39;;;;;;;4.22;1.33;;;;;;;22.92;56.29;100798.31;5052704;28;20041;-76
2023/05/02 11:17:08;;;;;;;5.65;1.45;;;;;;;22.49;54.13;100809.78;5054355;28;20053;-77
2023/05/02 11:19:36;;;;;;;4.15;1.50;;;;;;;23.03;57.71;100793.28;5052741;28;20037;-77
2023/05/02 11:22:31;;;;;;;2.50;1.40;;;;;;;23.96;54.87;100785.97;5070128;28;20049;-75
2023/05/02 11:24:57;;;;;;;2.72;1.20;;;;;;;23.16;56.64;100788.91;5052403;28;20041;-76